KPSF/PSF METAR and TAF weather

Enter ICAO airport designator
Station Type Date Time Source
KPSF METAR 2022/06/30 13:54 UTC NOAA

KPSF 301354Z AUTO 29008KT 10SM CLR 21/11 A3022 RMK AO2 SLP211 T02060111


Station Type Date Time Source
KPSF Decoded METAR 2022/06/30 13:54 UTC NOAA

PITTSFIELD MUNICIPAL AIRPORT , MA, United States (KPSF) 42-26N 073-17W 355M
Jun 30, 2022 - 09:54 AM EDT / 2022.06.30 1354 UTC
Wind: from the WNW (290 degrees) at 9 MPH (8 KT):0
Visibility: 10 mile(s):0
Sky conditions: clear
Temperature: 69.1 F (20.6 C)
Dew Point: 52.0 F (11.1 C)
Relative Humidity: 54%
Pressure (altimeter): 30.22 in. Hg (1023 hPa)
ob: KPSF 301354Z AUTO 29008KT 10SM CLR 21/11 A3022 RMK AO2 SLP211 T02060111
cycle: 14

Station Type Date Time Source
KPSF TAF 2022/06/30 12:30 UTC NOAA

TAF KPSF 301127Z 3012/0112 VRB03KT P6SM FEW070 SCT250
FM301500 31009KT P6SM FEW050 SCT200
FM302300 VRB03KT P6SM SCT200
FM010600 00000KT P6SM SCT100 BKN200

Example: see airport list